Time;durP1;ratioP1;P1;durP2;ratioP2;P2;SDS_P1;SDS_P2;PMS_P1;PMS_P2;Temp;Humidity;BMP_temperature;BMP_pressure;BME280_temperature;BME280_humidity;BME280_pressure;Samples;Min_cycle;Max_cycle;Signal;HPM_P1;HPM_P2
2022/11/16 00:01:04;;;;;;;;;;;10.50;99.90;;;;;;1941985;73;20314;-76
2022/11/16 00:03:31;;;;;;;;;;;10.30;99.90;;;;;;1941564;74;20151;-76
2022/11/16 00:05:59;;;;;;;;;;;10.30;99.90;;;;;;1944231;73;20339;-76
2022/11/16 00:08:26;;;;;;;;;;;10.20;99.90;;;;;;1941849;73;20158;-78
2022/11/16 00:10:53;;;;;;;;;;;10.30;99.90;;;;;;1920318;74;20120;-78
2022/11/16 00:13:19;;;;;;;;;;;10.20;99.90;;;;;;1923810;73;20186;-77
2022/11/16 00:15:56;;;;;;;;;;;10.10;99.90;;;;;;1945122;73;20157;-78
2022/11/16 00:18:22;;;;;;;;;;;10.30;99.90;;;;;;1912223;74;20113;-77
2022/11/16 00:20:50;;;;;;;;;;;10.20;99.90;;;;;;1938910;73;20108;-77
2022/11/16 00:23:16;;;;;;;;;;;10.20;99.90;;;;;;1945638;73;20119;-78
2022/11/16 00:25:43;;;;;;;;;;;10.30;99.90;;;;;;1955209;73;20104;-77
2022/11/16 00:28:10;;;;;;;;;;;10.30;99.90;;;;;;1950718;73;20117;-77
2022/11/16 00:30:36;;;;;;;;;;;10.30;99.90;;;;;;1941401;73;20359;-77
2022/11/16 00:33:03;;;;;;;;;;;10.20;99.90;;;;;;1943470;74;20112;-76
2022/11/16 00:35:30;;;;;;;;;;;10.30;99.90;;;;;;1946656;74;20123;-77
2022/11/16 00:37:57;;;;;;;;;;;10.30;99.90;;;;;;1947887;73;20399;-77
2022/11/16 00:40:25;;;;;;;;;;;10.30;99.90;;;;;;1951070;73;20151;-78
2022/11/16 00:42:51;;;;;;;;;;;10.30;99.90;;;;;;1943586;74;20181;-76
2022/11/16 00:45:18;;;;;;;;;;;10.30;99.90;;;;;;1951064;74;20143;-78
2022/11/16 00:47:45;;;;;;;;;;;10.30;99.90;;;;;;1945891;73;20108;-77
2022/11/16 00:50:11;;;;;;;;;;;10.10;99.90;;;;;;1949036;73;20128;-77
2022/11/16 00:52:38;;;;;;;;;;;10.10;99.90;;;;;;1945438;73;20157;-77
2022/11/16 00:55:05;;;;;;;;;;;10.10;99.90;;;;;;1948844;73;20115;-77
2022/11/16 00:57:32;;;;;;;;;;;10.10;99.90;;;;;;1945150;73;20108;-76
2022/11/16 00:59:58;;;;;;;;;;;10.00;99.90;;;;;;1945827;74;20115;-76
2022/11/16 01:02:26;;;;;;;;;;;10.00;99.90;;;;;;1944663;74;20150;-76
2022/11/16 01:04:53;;;;;;;;;;;10.10;99.90;;;;;;1943705;74;20120;-76
2022/11/16 01:07:20;;;;;;;;;;;10.20;99.90;;;;;;1943427;73;20154;-77
2022/11/16 01:09:46;;;;;;;;;;;10.10;99.90;;;;;;1948784;73;20231;-76
2022/11/16 01:12:13;;;;;;;;;;;10.20;99.90;;;;;;1949148;73;20115;-76
2022/11/16 01:14:41;;;;;;;;;;;10.20;99.90;;;;;;1947378;74;20153;-78
2022/11/16 01:17:10;;;;;;;;;;;10.10;99.90;;;;;;1949521;73;20169;-78
2022/11/16 01:19:36;;;;;;;;;;;10.10;99.90;;;;;;1939244;74;20145;-77
2022/11/16 01:22:03;;;;;;;;;;;10.10;99.90;;;;;;1938503;73;20115;-77
2022/11/16 01:24:30;;;;;;;;;;;10.10;99.90;;;;;;1944241;74;20143;-77
2022/11/16 01:26:57;;;;;;;;;;;10.00;99.90;;;;;;1949046;73;20116;-77
2022/11/16 01:29:24;;;;;;;;;;;9.90;99.90;;;;;;1951095;73;20108;-78
2022/11/16 01:31:51;;;;;;;;;;;10.00;99.90;;;;;;1947479;73;20109;-77
2022/11/16 01:34:18;;;;;;;;;;;10.00;99.90;;;;;;1947261;73;20417;-78
2022/11/16 01:36:44;;;;;;;;;;;10.00;99.90;;;;;;1948242;73;20123;-78
2022/11/16 01:39:11;;;;;;;;;;;10.00;99.90;;;;;;1940620;73;20132;-77
2022/11/16 01:41:40;;;;;;;;;;;10.10;99.90;;;;;;1942471;73;20379;-78
2022/11/16 01:44:08;;;;;;;;;;;10.20;99.90;;;;;;1946505;73;20124;-78
2022/11/16 01:46:35;;;;;;;;;;;10.10;99.90;;;;;;1950046;73;20358;-75
2022/11/16 01:49:03;;;;;;;;;;;10.00;99.90;;;;;;1940974;73;20108;-75
2022/11/16 01:51:29;;;;;;;;;;;10.10;99.90;;;;;;1941523;73;20104;-76
2022/11/16 01:53:57;;;;;;;;;;;10.10;99.90;;;;;;1942345;73;20362;-75
2022/11/16 01:56:23;;;;;;;;;;;10.10;99.90;;;;;;1955259;73;20316;-74
2022/11/16 01:58:50;;;;;;;;;;;10.20;99.90;;;;;;1949127;73;20116;-75
2022/11/16 02:01:17;;;;;;;;;;;10.20;99.90;;;;;;1944046;73;20112;-75
2022/11/16 02:03:44;;;;;;;;;;;10.10;99.90;;;;;;1950759;73;20150;-75
2022/11/16 02:06:15;;;;;;;;;;;10.20;99.90;;;;;;1944064;73;20154;-75
2022/11/16 02:11:45;;;;;;;;;;;10.20;99.90;;;;;;1942275;73;20355;-77
2022/11/16 02:14:13;;;;;;;;;;;10.10;99.90;;;;;;1947884;74;20107;-76
2022/11/16 02:16:42;;;;;;;;;;;10.20;99.90;;;;;;1950692;73;20158;-75
2022/11/16 02:19:27;;;;;;;;;;;10.00;99.90;;;;;;1951084;73;20116;-76
2022/11/16 02:21:58;;;;;;;;;;;10.00;99.90;;;;;;1951640;74;20104;-76
2022/11/16 02:24:32;;;;;;;;;;;9.90;99.90;;;;;;1948465;73;20123;-77
2022/11/16 02:27:13;;;;;;;;;;;9.80;99.90;;;;;;1941394;73;20124;-76
2022/11/16 02:29:40;;;;;;;;;;;9.90;99.90;;;;;;1944717;74;20363;-77
2022/11/16 02:32:14;;;;;;;;;;;10.00;99.90;;;;;;1946703;73;20432;-75
2022/11/16 02:34:51;;;;;;;;;;;9.90;99.90;;;;;;1948214;73;20108;-75
2022/11/16 02:37:19;;;;;;;;;;;9.90;99.90;;;;;;1949347;73;20339;-77
2022/11/16 02:39:46;;;;;;;;;;;9.90;99.90;;;;;;1943501;74;20336;-76
2022/11/16 02:42:15;;;;;;;;;;;9.90;99.90;;;;;;1943621;73;20317;-77
2022/11/16 02:44:43;;;;;;;;;;;9.90;99.90;;;;;;1948157;73;20177;-77
2022/11/16 02:47:11;;;;;;;;;;;9.90;99.90;;;;;;1956929;73;20121;-77
2022/11/16 02:49:39;;;;;;;;;;;9.80;99.90;;;;;;1944655;73;20257;-76
2022/11/16 02:52:05;;;;;;;;;;;9.90;99.90;;;;;;1922131;74;20140;-76
2022/11/16 02:54:32;;;;;;;;;;;9.80;99.90;;;;;;1943878;73;20116;-76
2022/11/16 02:57:03;;;;;;;;;;;9.90;99.90;;;;;;1943190;74;20160;-75
2022/11/16 02:59:32;;;;;;;;;;;9.90;99.90;;;;;;1941859;73;20234;-75
2022/11/16 03:02:15;;;;;;;;;;;9.90;99.90;;;;;;1946254;73;20129;-75
2022/11/16 03:04:43;;;;;;;;;;;9.80;99.90;;;;;;1944336;73;20124;-75
2022/11/16 03:07:12;;;;;;;;;;;9.70;99.90;;;;;;1949826;73;20378;-77
2022/11/16 03:09:38;;;;;;;;;;;9.80;99.90;;;;;;1945105;73;20379;-76
2022/11/16 03:12:07;;;;;;;;;;;9.90;99.90;;;;;;1938494;74;20120;-76
2022/11/16 03:14:35;;;;;;;;;;;9.70;99.90;;;;;;1947427;73;20327;-77
2022/11/16 03:17:03;;;;;;;;;;;9.60;99.90;;;;;;1933666;73;20120;-77
2022/11/16 03:19:46;;;;;;;;;;;9.60;99.90;;;;;;1942067;73;20236;-77
2022/11/16 03:22:27;;;;;;;;;;;9.70;99.90;;;;;;1944186;73;20278;-76
2022/11/16 03:24:53;;;;;;;;;;;9.80;99.90;;;;;;1944054;73;20120;-76
2022/11/16 03:27:28;;;;;;;;;;;9.80;99.90;;;;;;1942565;74;20160;-76
2022/11/16 03:30:05;;;;;;;;;;;9.90;99.90;;;;;;1950832;73;20158;-77
2022/11/16 03:32:50;;;;;;;;;;;9.90;99.90;;;;;;1942738;73;20123;-77
2022/11/16 03:35:19;;;;;;;;;;;9.80;99.90;;;;;;1948649;73;20105;-76
2022/11/16 03:37:46;;;;;;;;;;;9.80;99.90;;;;;;1946879;73;20332;-77
2022/11/16 03:40:12;;;;;;;;;;;10.00;99.90;;;;;;1944209;73;20223;-77
2022/11/16 03:42:39;;;;;;;;;;;9.90;99.90;;;;;;1913743;74;20170;-78
2022/11/16 03:45:06;;;;;;;;;;;9.90;99.90;;;;;;1942516;74;20116;-77
2022/11/16 03:47:33;;;;;;;;;;;9.90;99.90;;;;;;1944091;73;20333;-77
2022/11/16 03:49:59;;;;;;;;;;;9.90;99.90;;;;;;1946953;73;20119;-77
2022/11/16 03:52:26;;;;;;;;;;;9.90;99.90;;;;;;1951480;73;20222;-76
2022/11/16 03:54:53;;;;;;;;;;;9.90;99.90;;;;;;1947692;73;20119;-78
2022/11/16 03:57:19;;;;;;;;;;;9.80;99.90;;;;;;1943792;73;20339;-77
2022/11/16 03:59:46;;;;;;;;;;;9.80;99.90;;;;;;1954625;73;20164;-77
2022/11/16 04:02:13;;;;;;;;;;;9.90;99.90;;;;;;1943733;74;20165;-77
2022/11/16 04:24:11;;;;;;;;;;;9.90;99.90;;;;;;1939342;74;20121;-78
2022/11/16 04:29:22;;;;;;;;;;;9.80;99.90;;;;;;1950300;73;20211;-77
2022/11/16 04:40:03;;;;;;;;;;;9.80;99.90;;;;;;1945147;74;20143;-76
2022/11/16 04:42:30;;;;;;;;;;;9.90;99.90;;;;;;1943117;74;20156;-76
2022/11/16 04:47:41;;;;;;;;;;;9.80;99.90;;;;;;1945477;73;20230;-76
2022/11/16 04:50:08;;;;;;;;;;;9.80;99.90;;;;;;1948646;73;20366;-77
2022/11/16 04:52:35;;;;;;;;;;;9.80;99.90;;;;;;1934215;73;20174;-76
2022/11/16 04:55:02;;;;;;;;;;;9.70;99.90;;;;;;1947613;74;20150;-78
2022/11/16 04:57:28;;;;;;;;;;;9.70;99.90;;;;;;1947904;73;20379;-77
2022/11/16 04:59:55;;;;;;;;;;;9.80;99.90;;;;;;1941054;73;20105;-76
2022/11/16 05:02:22;;;;;;;;;;;9.80;99.90;;;;;;1940041;74;20143;-74
2022/11/16 05:04:49;;;;;;;;;;;10.00;99.90;;;;;;1940416;73;20162;-76
2022/11/16 05:07:15;;;;;;;;;;;10.00;99.90;;;;;;1949142;73;20146;-76
2022/11/16 05:09:44;;;;;;;;;;;9.90;99.90;;;;;;1947367;73;20108;-76
2022/11/16 05:12:11;;;;;;;;;;;10.00;99.90;;;;;;1938963;73;20201;-76
2022/11/16 05:14:37;;;;;;;;;;;10.00;99.90;;;;;;1943055;73;20151;-77
2022/11/16 05:17:06;;;;;;;;;;;9.90;99.90;;;;;;1945890;74;20150;-77
2022/11/16 05:22:37;;;;;;;;;;;10.10;99.90;;;;;;1873282;75;20135;-77
2022/11/16 05:25:04;;;;;;;;;;;10.00;99.90;;;;;;1867678;75;20261;-77
2022/11/16 05:27:31;;;;;;;;;;;10.10;99.90;;;;;;1881118;75;20112;-77
2022/11/16 05:29:57;;;;;;;;;;;10.20;99.90;;;;;;1877527;74;20115;-77
2022/11/16 05:32:24;;;;;;;;;;;10.10;99.90;;;;;;1864567;75;20341;-78
2022/11/16 05:34:51;;;;;;;;;;;10.10;99.90;;;;;;1865333;75;20212;-78
2022/11/16 05:37:19;;;;;;;;;;;10.00;99.90;;;;;;1873952;76;20108;-78
2022/11/16 05:39:48;;;;;;;;;;;10.10;99.90;;;;;;1886866;75;20120;-79
2022/11/16 05:42:15;;;;;;;;;;;10.10;99.90;;;;;;1882891;75;20372;-79
2022/11/16 05:44:42;;;;;;;;;;;10.10;99.90;;;;;;1862422;75;20115;-78
2022/11/16 05:47:11;;;;;;;;;;;10.20;99.90;;;;;;1866207;74;20120;-78
2022/11/16 05:49:37;;;;;;;;;;;10.10;99.90;;;;;;1881541;74;20111;-78
2022/11/16 05:52:03;;;;;;;;;;;10.00;99.90;;;;;;1878837;75;20128;-78
2022/11/16 05:54:30;;;;;;;;;;;10.10;99.90;;;;;;1876215;74;20153;-77
2022/11/16 05:56:57;;;;;;;;;;;10.20;99.90;;;;;;1875827;75;20128;-76
2022/11/16 05:59:24;;;;;;;;;;;10.20;99.90;;;;;;1854154;75;20153;-77
2022/11/16 06:01:50;;;;;;;;;;;10.20;99.90;;;;;;1876025;76;20382;-76
2022/11/16 06:04:17;;;;;;;;;;;10.20;99.90;;;;;;1887110;75;20119;-76
2022/11/16 06:06:44;;;;;;;;;;;10.20;99.90;;;;;;1878245;74;20124;-76
2022/11/16 06:09:11;;;;;;;;;;;10.10;99.90;;;;;;1847762;75;20247;-76
2022/11/16 06:11:38;;;;;;;;;;;10.00;99.90;;;;;;1853108;75;20131;-77
2022/11/16 06:14:05;;;;;;;;;;;10.00;99.90;;;;;;1873398;75;20245;-76
2022/11/16 06:16:31;;;;;;;;;;;9.90;99.90;;;;;;1871530;75;20346;-75
2022/11/16 06:18:58;;;;;;;;;;;9.90;99.90;;;;;;1887663;74;20130;-77
2022/11/16 06:21:25;;;;;;;;;;;9.90;99.90;;;;;;1868581;76;20256;-77
2022/11/16 06:23:52;;;;;;;;;;;9.80;99.90;;;;;;1880557;75;20122;-75
2022/11/16 06:26:19;;;;;;;;;;;9.90;99.90;;;;;;1861810;74;20115;-78
2022/11/16 06:28:46;;;;;;;;;;;9.90;99.90;;;;;;1875738;75;20131;-77
2022/11/16 06:31:12;;;;;;;;;;;9.90;99.90;;;;;;1871760;76;20125;-77
2022/11/16 06:33:39;;;;;;;;;;;10.00;99.90;;;;;;1878434;76;20120;-77
2022/11/16 06:36:06;;;;;;;;;;;10.00;99.90;;;;;;1898314;76;20150;-77
2022/11/16 06:38:33;;;;;;;;;;;10.00;99.90;;;;;;1889816;74;20128;-77
2022/11/16 06:41:00;;;;;;;;;;;9.90;99.90;;;;;;1855892;75;20129;-78
2022/11/16 06:43:27;;;;;;;;;;;9.90;99.90;;;;;;1861408;75;20120;-77
2022/11/16 06:45:54;;;;;;;;;;;9.80;99.90;;;;;;1855778;75;20496;-77
2022/11/16 06:48:21;;;;;;;;;;;9.90;99.90;;;;;;1859563;75;20389;-78
2022/11/16 06:50:48;;;;;;;;;;;10.00;99.90;;;;;;1886756;75;20217;-77
2022/11/16 06:53:15;;;;;;;;;;;10.00;99.90;;;;;;1866815;75;20394;-75
2022/11/16 06:55:42;;;;;;;;;;;10.10;99.90;;;;;;1859883;75;20320;-76
2022/11/16 06:58:09;;;;;;;;;;;10.00;99.90;;;;;;1866096;75;20119;-76
2022/11/16 07:00:35;;;;;;;;;;;10.00;99.90;;;;;;1866514;75;20395;-76
2022/11/16 07:03:02;;;;;;;;;;;10.00;99.90;;;;;;1865141;75;20129;-76
2022/11/16 07:05:29;;;;;;;;;;;10.10;99.90;;;;;;1864397;74;20253;-75
2022/11/16 07:07:56;;;;;;;;;;;10.20;99.90;;;;;;1873766;75;20118;-76
2022/11/16 07:10:23;;;;;;;;;;;10.20;99.90;;;;;;1856954;74;20130;-77
2022/11/16 07:12:49;;;;;;;;;;;10.10;99.90;;;;;;1864651;75;20195;-83
2022/11/16 07:15:16;;;;;;;;;;;10.10;99.90;;;;;;1852692;77;20125;-79
2022/11/16 07:17:43;;;;;;;;;;;10.20;99.90;;;;;;1864665;75;20124;-76
2022/11/16 07:20:10;;;;;;;;;;;10.10;99.90;;;;;;1859384;75;20395;-74
2022/11/16 07:22:37;;;;;;;;;;;10.20;99.90;;;;;;1859754;75;20373;-79
2022/11/16 07:25:04;;;;;;;;;;;10.10;99.90;;;;;;1864238;75;20148;-77
2022/11/16 07:27:31;;;;;;;;;;;10.10;99.90;;;;;;1878026;75;20124;-78
2022/11/16 07:29:57;;;;;;;;;;;10.20;99.90;;;;;;1884330;75;20205;-79
2022/11/16 07:32:24;;;;;;;;;;;10.20;99.90;;;;;;1891280;76;20154;-79
2022/11/16 07:34:51;;;;;;;;;;;10.10;99.90;;;;;;1874122;74;20123;-79
2022/11/16 07:37:17;;;;;;;;;;;10.10;99.90;;;;;;1866885;74;20319;-79
2022/11/16 07:39:44;;;;;;;;;;;10.20;99.90;;;;;;1873288;74;20157;-79
2022/11/16 07:42:11;;;;;;;;;;;10.30;99.90;;;;;;1886004;75;20348;-79
2022/11/16 07:44:38;;;;;;;;;;;10.20;99.90;;;;;;1862682;74;20122;-79
2022/11/16 07:47:05;;;;;;;;;;;10.40;99.90;;;;;;1858284;74;20194;-80
2022/11/16 07:49:32;;;;;;;;;;;10.40;99.90;;;;;;1887190;75;20187;-79
2022/11/16 07:51:59;;;;;;;;;;;10.40;99.90;;;;;;1875475;75;20377;-79
2022/11/16 07:54:26;;;;;;;;;;;10.30;99.90;;;;;;1887902;74;20300;-80
2022/11/16 07:56:52;;;;;;;;;;;10.30;99.90;;;;;;1877651;74;20359;-79
2022/11/16 07:59:19;;;;;;;;;;;10.50;99.90;;;;;;1870696;75;20131;-79
2022/11/16 08:01:46;;;;;;;;;;;10.50;99.90;;;;;;1890173;74;20119;-79
2022/11/16 08:04:14;;;;;;;;;;;10.60;99.90;;;;;;1872769;75;20333;-79
2022/11/16 08:06:41;;;;;;;;;;;10.70;99.90;;;;;;1882319;74;20481;-79
2022/11/16 08:09:08;;;;;;;;;;;10.70;99.90;;;;;;1884374;74;20128;-79
2022/11/16 08:11:35;;;;;;;;;;;10.70;99.90;;;;;;1887568;75;20166;-79
2022/11/16 08:14:01;;;;;;;;;;;10.70;99.90;;;;;;1876940;76;20130;-79
2022/11/16 08:16:28;;;;;;;;;;;10.60;99.90;;;;;;1861977;75;20130;-79
2022/11/16 08:18:55;;;;;;;;;;;10.60;99.90;;;;;;1875304;75;20354;-79
2022/11/16 08:21:21;;;;;;;;;;;10.70;99.90;;;;;;1870869;75;20111;-81
2022/11/16 08:23:48;;;;;;;;;;;11.00;99.90;;;;;;1862288;75;20322;-81
2022/11/16 08:26:16;;;;;;;;;;;11.00;99.90;;;;;;1859654;75;20239;-81
2022/11/16 08:28:44;;;;;;;;;;;11.00;99.90;;;;;;1877906;75;20232;-81
2022/11/16 08:31:12;;;;;;;;;;;10.90;99.90;;;;;;1872210;75;20135;-79
2022/11/16 08:33:39;;;;;;;;;;;11.00;99.90;;;;;;1864673;75;20266;-79
2022/11/16 08:36:06;;;;;;;;;;;11.00;99.90;;;;;;1861140;75;20173;-80
2022/11/16 08:38:33;;;;;;;;;;;11.10;99.90;;;;;;1876515;74;20150;-77
2022/11/16 08:40:59;;;;;;;;;;;11.10;99.90;;;;;;1888627;76;20388;-79
2022/11/16 08:43:28;;;;;;;;;;;11.10;99.90;;;;;;1875766;75;20116;-78
2022/11/16 08:45:56;;;;;;;;;;;11.10;99.90;;;;;;1878212;75;20493;-78
2022/11/16 08:48:22;;;;;;;;;;;11.20;99.90;;;;;;1875928;75;20113;-77
2022/11/16 08:50:49;;;;;;;;;;;11.10;99.90;;;;;;1875940;75;20188;-78
2022/11/16 08:53:16;;;;;;;;;;;11.30;99.90;;;;;;1874899;75;20122;-78
2022/11/16 08:55:43;;;;;;;;;;;11.40;99.90;;;;;;1874067;75;20121;-78
2022/11/16 08:58:10;;;;;;;;;;;11.30;99.90;;;;;;1851739;75;20365;-78
2022/11/16 09:00:37;;;;;;;;;;;11.40;99.90;;;;;;1870280;74;20381;-78
2022/11/16 09:03:03;;;;;;;;;;;11.80;99.90;;;;;;1878725;75;20155;-78
2022/11/16 09:05:30;;;;;;;;;;;11.80;99.90;;;;;;1865243;75;20188;-78
2022/11/16 09:07:57;;;;;;;;;;;11.70;99.90;;;;;;1890406;74;20122;-79
2022/11/16 09:10:24;;;;;;;;;;;11.70;99.90;;;;;;1878069;74;20309;-78
2022/11/16 09:12:51;;;;;;;;;;;11.90;99.90;;;;;;1863631;75;20116;-78
2022/11/16 09:15:19;;;;;;;;;;;12.10;99.90;;;;;;1880733;75;20141;-78
2022/11/16 09:17:46;;;;;;;;;;;12.40;99.90;;;;;;1889055;75;20182;-76
2022/11/16 09:20:13;;;;;;;;;;;12.70;99.90;;;;;;1881285;74;20346;-76
2022/11/16 09:22:40;;;;;;;;;;;12.70;99.90;;;;;;1854860;75;20165;-74
2022/11/16 09:25:08;;;;;;;;;;;12.40;99.90;;;;;;1865137;75;20361;-76
2022/11/16 09:27:35;;;;;;;;;;;12.10;99.90;;;;;;1882025;75;20220;-78
2022/11/16 09:30:01;;;;;;;;;;;11.90;99.90;;;;;;1869577;75;20118;-78
2022/11/16 09:32:28;;;;;;;;;;;11.70;99.90;;;;;;1864982;75;20359;-78
2022/11/16 09:34:55;;;;;;;;;;;11.70;99.90;;;;;;1874254;75;20159;-78
2022/11/16 09:37:22;;;;;;;;;;;11.90;99.90;;;;;;1887337;75;20128;-78
2022/11/16 09:39:48;;;;;;;;;;;12.10;99.90;;;;;;1878152;75;20116;-79
2022/11/16 09:42:23;;;;;;;;;;;12.10;99.90;;;;;;1875604;75;20213;-78
2022/11/16 09:45:03;;;;;;;;;;;12.30;99.90;;;;;;1854934;76;20358;-79
2022/11/16 09:47:49;;;;;;;;;;;12.40;99.90;;;;;;1866017;75;20189;-80
2022/11/16 09:50:17;;;;;;;;;;;13.00;99.90;;;;;;1856539;74;20255;-79
2022/11/16 09:52:45;;;;;;;;;;;13.70;99.90;;;;;;1846829;76;20110;-79
2022/11/16 09:55:22;;;;;;;;;;;13.50;99.90;;;;;;1862655;75;20197;-79
2022/11/16 09:57:50;;;;;;;;;;;13.10;99.90;;;;;;1881246;75;20124;-79
2022/11/16 10:00:18;;;;;;;;;;;13.30;99.90;;;;;;1856765;76;20244;-79
2022/11/16 10:02:46;;;;;;;;;;;13.20;99.90;;;;;;1934772;70;20185;-79
2022/11/16 10:05:15;;;;;;;;;;;12.90;99.90;;;;;;1912484;75;20345;-78
2022/11/16 10:07:43;;;;;;;;;;;13.10;99.90;;;;;;1913632;75;20118;-78
2022/11/16 10:10:13;;;;;;;;;;;13.30;99.90;;;;;;1914207;75;20148;-78
2022/11/16 10:12:45;;;;;;;;;;;13.40;99.90;;;;;;1914471;75;20119;-78
2022/11/16 10:15:30;;;;;;;;;;;13.20;99.90;;;;;;1914507;75;20106;-78
2022/11/16 10:17:58;;;;;;;;;;;13.30;99.90;;;;;;1914659;75;20141;-79
2022/11/16 10:20:29;;;;;;;;;;;13.30;99.90;;;;;;1913864;75;20161;-78
2022/11/16 10:22:58;;;;;;;;;;;13.10;99.90;;;;;;1913656;75;20153;-77
2022/11/16 10:25:26;;;;;;;;;;;13.00;99.90;;;;;;1909262;75;20209;-78
2022/11/16 10:27:54;;;;;;;;;;;13.10;99.90;;;;;;1912821;75;20204;-78
2022/11/16 10:30:21;;;;;;;;;;;12.90;99.90;;;;;;1913259;75;20153;-78
2022/11/16 10:32:59;;;;;;;;;;;13.10;99.90;;;;;;1913858;75;20122;-76
2022/11/16 10:35:38;;;;;;;;;;;13.10;99.90;;;;;;1913965;75;20165;-74
2022/11/16 10:38:07;;;;;;;;;;;12.90;99.90;;;;;;1913932;75;20165;-76
2022/11/16 10:40:35;;;;;;;;;;;13.00;99.90;;;;;;1911016;75;20114;-76
2022/11/16 10:43:12;;;;;;;;;;;13.00;99.90;;;;;;1913154;75;20126;-76
2022/11/16 10:45:47;;;;;;;;;;;12.90;99.90;;;;;;1914231;75;20114;-76
2022/11/16 10:48:18;;;;;;;;;;;12.80;99.90;;;;;;1914378;75;20114;-77
2022/11/16 10:50:47;;;;;;;;;;;12.80;99.90;;;;;;1914190;75;20145;-76
2022/11/16 10:53:14;;;;;;;;;;;12.70;99.90;;;;;;1914394;75;20153;-77
2022/11/16 10:55:41;;;;;;;;;;;12.50;99.90;;;;;;1913789;75;20118;-77
2022/11/16 10:58:08;;;;;;;;;;;12.40;99.90;;;;;;1914087;75;20340;-75
2022/11/16 11:00:39;;;;;;;;;;;12.30;99.90;;;;;;1914450;75;20315;-76
2022/11/16 11:03:06;;;;;;;;;;;12.50;99.90;;;;;;1913986;75;20118;-76
2022/11/16 11:05:33;;;;;;;;;;;12.50;99.90;;;;;;1914208;75;20145;-76
2022/11/16 11:08:04;;;;;;;;;;;12.60;99.90;;;;;;1914194;75;20122;-76
2022/11/16 11:10:32;;;;;;;;;;;12.70;99.90;;;;;;1914099;75;20118;-77
2022/11/16 11:13:13;;;;;;;;;;;12.80;99.90;;;;;;1914439;75;20114;-76
2022/11/16 11:15:41;;;;;;;;;;;12.90;99.90;;;;;;1911042;75;20141;-76
2022/11/16 11:18:12;;;;;;;;;;;13.00;99.90;;;;;;1914251;75;20126;-76
2022/11/16 11:20:40;;;;;;;;;;;13.10;99.90;;;;;;1910736;75;20107;-77
2022/11/16 11:23:23;;;;;;;;;;;13.20;99.90;;;;;;1914581;75;20110;-79
2022/11/16 11:25:54;;;;;;;;;;;13.30;99.90;;;;;;1914963;75;20112;-77
2022/11/16 11:28:26;;;;;;;;;;;13.30;99.90;;;;;;1914551;75;20122;-78
2022/11/16 11:30:55;;;;;;;;;;;13.00;99.90;;;;;;1913345;75;20118;-78
2022/11/16 11:33:22;;;;;;;;;;;12.90;99.90;;;;;;1914306;75;20118;-79
2022/11/16 11:35:56;;;;;;;;;;;12.80;99.90;;;;;;1914313;75;20145;-80
2022/11/16 11:38:23;;;;;;;;;;;12.70;99.90;;;;;;1914395;75;20146;-81
2022/11/16 11:40:57;;;;;;;;;;;12.50;99.90;;;;;;1914067;75;20168;-80
2022/11/16 11:43:24;;;;;;;;;;;12.60;99.90;;;;;;1914285;75;20110;-78
2022/11/16 11:45:55;;;;;;;;;;;12.70;99.90;;;;;;1914320;75;20337;-80
2022/11/16 11:48:29;;;;;;;;;;;12.60;99.90;;;;;;1904035;75;20118;-80
2022/11/16 11:51:00;;;;;;;;;;;12.70;99.90;;;;;;1906075;75;20200;-77
2022/11/16 11:53:32;;;;;;;;;;;12.70;99.90;;;;;;1905704;75;20115;-77
2022/11/16 11:55:59;;;;;;;;;;;13.10;99.90;;;;;;1905937;75;20103;-82
2022/11/16 11:58:27;;;;;;;;;;;13.20;99.90;;;;;;1905611;75;20162;-82
2022/11/16 12:00:56;;;;;;;;;;;13.30;99.90;;;;;;1906702;75;20099;-81
2022/11/16 12:03:42;;;;;;;;;;;13.60;99.90;;;;;;1906547;75;20122;-79
2022/11/16 12:06:19;;;;;;;;;;;13.90;99.90;;;;;;1906713;75;20153;-78
2022/11/16 12:08:59;;;;;;;;;;;14.50;99.90;;;;;;1906112;75;20236;-77
2022/11/16 12:11:28;;;;;;;;;;;14.80;99.90;;;;;;1905849;75;20344;-79
2022/11/16 12:14:11;;;;;;;;;;;15.10;99.90;;;;;;1905464;75;20150;-78
2022/11/16 12:16:55;;;;;;;;;;;15.10;99.90;;;;;;1840270;78;20142;-78
2022/11/16 12:19:35;;;;;;;;;;;14.60;99.90;;;;;;1866034;76;20217;-78
2022/11/16 12:22:20;;;;;;;;;;;14.30;99.90;;;;;;1867371;77;20171;-78
2022/11/16 12:25:05;;;;;;;;;;;14.40;99.90;;;;;;1869895;76;20101;-76
2022/11/16 12:27:36;;;;;;;;;;;14.50;99.90;;;;;;1912879;75;20106;-75
2022/11/16 12:30:14;;;;;;;;;;;14.40;99.90;;;;;;1914114;75;20126;-74
2022/11/16 12:32:51;;;;;;;;;;;14.30;99.90;;;;;;1914090;75;20332;-76
2022/11/16 12:35:19;;;;;;;;;;;14.40;99.90;;;;;;1913916;75;20317;-75
2022/11/16 12:37:51;;;;;;;;;;;14.40;99.90;;;;;;1914122;75;20110;-77
2022/11/16 12:40:28;;;;;;;;;;;14.30;99.90;;;;;;1913536;75;20126;-75
2022/11/16 12:42:59;;;;;;;;;;;14.20;99.90;;;;;;1914008;75;20160;-77
2022/11/16 12:45:30;;;;;;;;;;;14.00;99.90;;;;;;1914227;75;20157;-75
2022/11/16 12:47:58;;;;;;;;;;;14.00;99.90;;;;;;1914086;75;20215;-79
2022/11/16 12:50:36;;;;;;;;;;;14.20;99.90;;;;;;1913721;75;20169;-78
2022/11/16 12:53:10;;;;;;;;;;;14.90;99.90;;;;;;1913967;75;20168;-76
2022/11/16 12:55:39;;;;;;;;;;;14.80;99.90;;;;;;1913565;75;20154;-76
2022/11/16 12:58:24;;;;;;;;;;;14.50;99.90;;;;;;1913926;75;20205;-75
2022/11/16 13:00:59;;;;;;;;;;;14.30;99.90;;;;;;1914118;75;20103;-76
2022/11/16 13:03:36;;;;;;;;;;;14.20;99.90;;;;;;1913789;75;20384;-77
2022/11/16 13:06:05;;;;;;;;;;;14.10;99.90;;;;;;1914037;75;20164;-75
2022/11/16 13:08:37;;;;;;;;;;;14.00;99.90;;;;;;1913890;75;20207;-77
2022/11/16 13:11:20;;;;;;;;;;;13.80;99.90;;;;;;1913593;75;20341;-75
2022/11/16 13:13:47;;;;;;;;;;;13.80;99.90;;;;;;1914004;75;20160;-74
2022/11/16 13:16:16;;;;;;;;;;;13.90;99.90;;;;;;1914133;75;20114;-75
2022/11/16 13:18:42;;;;;;;;;;;14.00;99.90;;;;;;1914005;75;20140;-75
2022/11/16 13:21:14;;;;;;;;;;;13.90;99.90;;;;;;1913908;75;20199;-77
2022/11/16 13:23:48;;;;;;;;;;;13.80;99.90;;;;;;1913793;75;20125;-77
2022/11/16 13:26:16;;;;;;;;;;;13.70;99.90;;;;;;1913773;75;20126;-76
2022/11/16 13:28:44;;;;;;;;;;;13.80;99.90;;;;;;1913982;75;20138;-75
2022/11/16 13:31:15;;;;;;;;;;;14.10;99.90;;;;;;1913524;75;20110;-76
2022/11/16 13:33:43;;;;;;;;;;;14.10;99.90;;;;;;1913731;75;20130;-76
2022/11/16 13:36:28;;;;;;;;;;;14.10;99.90;;;;;;1914046;75;20161;-76
2022/11/16 13:38:54;;;;;;;;;;;14.30;99.90;;;;;;1914026;75;20350;-76
2022/11/16 13:41:31;;;;;;;;;;;14.60;99.90;;;;;;1913970;75;20114;-76
2022/11/16 13:43:58;;;;;;;;;;;14.60;99.90;;;;;;1914085;75;20102;-76
2022/11/16 13:46:26;;;;;;;;;;;14.90;99.90;;;;;;1913983;75;20099;-75
2022/11/16 13:48:53;;;;;;;;;;;15.60;99.90;;;;;;1912123;75;20114;-74
2022/11/16 13:51:21;;;;;;;;;;;16.40;99.90;;;;;;1914285;75;20118;-82
2022/11/16 13:53:49;;;;;;;;;;;16.50;99.90;;;;;;1914132;75;20106;-76
2022/11/16 13:56:16;;;;;;;;;;;16.80;99.90;;;;;;1914021;75;20161;-76
2022/11/16 13:58:44;;;;;;;;;;;16.30;99.90;;;;;;1914097;75;20111;-74
2022/11/16 14:01:14;;;;;;;;;;;15.60;99.90;;;;;;1910023;75;20118;-81
2022/11/16 14:03:41;;;;;;;;;;;15.30;99.90;;;;;;1914046;75;20106;-76
2022/11/16 14:06:25;;;;;;;;;;;14.80;99.90;;;;;;1910680;75;20332;-75
2022/11/16 14:08:52;;;;;;;;;;;14.60;99.90;;;;;;1913901;75;20203;-76
2022/11/16 14:11:29;;;;;;;;;;;14.60;99.90;;;;;;1914043;75;20107;-78
2022/11/16 14:13:56;;;;;;;;;;;14.40;99.90;;;;;;1913526;75;20153;-76
2022/11/16 14:16:24;;;;;;;;;;;14.30;99.90;;;;;;1914266;75;20114;-76
2022/11/16 14:18:51;;;;;;;;;;;14.30;99.90;;;;;;1914258;75;20110;-75
2022/11/16 14:21:35;;;;;;;;;;;14.30;99.90;;;;;;1913826;75;20107;-75
2022/11/16 14:24:09;;;;;;;;;;;14.40;99.90;;;;;;1913651;75;20110;-75
2022/11/16 14:26:46;;;;;;;;;;;14.50;99.90;;;;;;1913882;75;20142;-75
2022/11/16 14:29:31;;;;;;;;;;;14.50;99.90;;;;;;1913997;75;20118;-75
2022/11/16 14:31:58;;;;;;;;;;;14.60;99.90;;;;;;1914176;75;20103;-80
2022/11/16 14:34:32;;;;;;;;;;;14.70;99.90;;;;;;1914198;75;20107;-75
2022/11/16 14:36:58;;;;;;;;;;;14.60;99.90;;;;;;1913932;75;20102;-75
2022/11/16 14:39:32;;;;;;;;;;;14.50;99.90;;;;;;1914290;75;20111;-74
2022/11/16 14:42:03;;;;;;;;;;;14.60;99.90;;;;;;1876849;75;20148;-74
2022/11/16 14:44:32;;;;;;;;;;;14.60;99.90;;;;;;1914215;75;20099;-76
2022/11/16 14:46:58;;;;;;;;;;;14.90;99.90;;;;;;1914298;75;20306;-76
2022/11/16 14:49:25;;;;;;;;;;;15.30;99.90;;;;;;1913915;75;20107;-75
2022/11/16 14:51:53;;;;;;;;;;;15.90;99.90;;;;;;1914192;75;20363;-74
2022/11/16 14:54:34;;;;;;;;;;;16.50;99.90;;;;;;1913976;75;20329;-74
2022/11/16 14:57:01;;;;;;;;;;;16.80;99.90;;;;;;1914027;75;20144;-74
2022/11/16 14:59:29;;;;;;;;;;;17.30;99.90;;;;;;1913723;75;20160;-74
2022/11/16 15:01:55;;;;;;;;;;;17.50;99.90;;;;;;1914071;75;20114;-72
2022/11/16 15:04:24;;;;;;;;;;;16.80;99.90;;;;;;1914094;75;20310;-73
2022/11/16 15:06:52;;;;;;;;;;;16.40;99.90;;;;;;1914032;75;20107;-71
2022/11/16 15:09:23;;;;;;;;;;;16.20;99.90;;;;;;1912839;75;20164;-75